Pachuta, Mississippi
Current Conditions -  °F | °C
As of 5:58 PM on Friday 28 Nov 2014 (Local Time) from KMEI Reporting Station
Clear Clear  
Wind Chill: 44°   Ceiling: Unl
Heat Index: 44°   Visibility: 10mi
Dew Point: 31°   Wind: 0mph
Humidity: 60%   Direction: NA
Pressure: 30.27"   Gusts: NA
Location:  32.04°N, 88.88°W
Report Text: KMEI 282358Z 00000KT 10SM CLR 07/M01 A3027 RMK AO2 SLP250 T00671006 10144 20067 56005
Loading
Personal Weather Stations






























Interactive Weather Map New forecast layout! Learn more

10-Day Weather Forecast

Advertisements
Track Severe Weather on mobile